Map

Track Data

SID SEASON NUMBER BASIN SUBBASIN NAME ISO_TIME NATURE LAT LON WMO_WIND WMO_PRES WMO_AGENCY TRACK_TYPE DIST2LAND LANDFALL IFLAG USA_AGENCY USA_ATCF_ID USA_LAT USA_LON USA_RECORD USA_STATUS USA_WIND USA_PRES USA_SSHS USA_R34_NE USA_R34_SE USA_R34_SW USA_R34_NW USA_R50_NE USA_R50_SE USA_R50_SW USA_R50_NW USA_R64_NE USA_R64_SE USA_R64_SW USA_R64_NW USA_POCI USA_ROCI USA_RMW USA_EYE TOKYO_LAT TOKYO_LON TOKYO_GRADE TOKYO_WIND TOKYO_PRES TOKYO_R50_DIR TOKYO_R50_LONG TOKYO_R50_SHORT TOKYO_R30_DIR TOKYO_R30_LONG TOKYO_R30_SHORT TOKYO_LAND CMA_LAT CMA_LON CMA_CAT CMA_WIND CMA_PRES HKO_LAT HKO_LON HKO_CAT HKO_WIND HKO_PRES NEWDELHI_LAT NEWDELHI_LON NEWDELHI_GRADE NEWDELHI_WIND NEWDELHI_PRES NEWDELHI_CI NEWDELHI_DP NEWDELHI_POCI REUNION_LAT REUNION_LON REUNION_TYPE REUNION_WIND REUNION_PRES REUNION_TNUM REUNION_CI REUNION_RMW REUNION_R34_NE REUNION_R34_SE REUNION_R34_SW REUNION_R34_NW REUNION_R50_NE REUNION_R50_SE REUNION_R50_SW REUNION_R50_NW REUNION_R64_NE REUNION_R64_SE REUNION_R64_SW REUNION_R64_NW BOM_LAT BOM_LON BOM_TYPE BOM_WIND BOM_PRES BOM_TNUM BOM_CI BOM_RMW BOM_R34_NE BOM_R34_SE BOM_R34_SW BOM_R34_NW BOM_R50_NE BOM_R50_SE BOM_R50_SW BOM_R50_NW BOM_R64_NE BOM_R64_SE BOM_R64_SW BOM_R64_NW BOM_ROCI BOM_POCI BOM_EYE BOM_POS_METHOD BOM_PRES_METHOD NADI_LAT NADI_LON NADI_CAT NADI_WIND NADI_PRES WELLINGTON_LAT WELLINGTON_LON WELLINGTON_WIND WELLINGTON_PRES DS824_LAT DS824_LON DS824_STAGE DS824_WIND DS824_PRES TD9636_LAT TD9636_LON TD9636_STAGE TD9636_WIND TD9636_PRES TD9635_LAT TD9635_LON TD9635_WIND TD9635_PRES TD9635_ROCI NEUMANN_LAT NEUMANN_LON NEUMANN_CLASS NEUMANN_WIND NEUMANN_PRES MLC_LAT MLC_LON MLC_CLASS MLC_WIND MLC_PRES USA_GUST BOM_GUST BOM_GUST_PER REUNION_GUST REUNION_GUST_PER USA_SEAHGT USA_SEARAD_NE USA_SEARAD_SE USA_SEARAD_SW USA_SEARAD_NW STORM_SPEED STORM_DIR
1860336S09086 1861 36 SI MM NOT_NAMED 1860-12-01 06:00:00 NR -8.80000 85.6000 main 1673 1673 __________O___ -1 -8.80000 85.6000 7 3 253
1860336S09086 1861 36 SI MM NOT_NAMED 1860-12-01 09:00:00 NR -8.84538 85.4454 main 1692 1692 __________P___ -1 -8.84538 85.4454 7 3 253
1860336S09086 1861 36 SI MM NOT_NAMED 1860-12-01 12:00:00 NR -8.89258 85.2925 main 1707 1707 __________P___ -1 -8.89258 85.2925 7 3 252
1860336S09086 1861 36 SI MM NOT_NAMED 1860-12-01 15:00:00 NR -8.94349 85.1435 main 1726 1726 __________P___ -1 -8.94349 85.1435 7 3 249
1860336S09086 1861 36 SI MM NOT_NAMED 1860-12-01 18:00:00 NR -9.00000 85.0000 main 1739 1736 __________O___ -1 -9.00000 85.0000 7 3 246
1860336S09086 1861 36 SI MM NOT_NAMED 1860-12-01 21:00:00 NR -9.06369 84.8621 main 1747 1741 __________P___ -1 -9.06369 84.8621 7 3 244
1860336S09086 1861 36 SI MM NOT_NAMED 1860-12-02 00:00:00 NR -9.13491 84.7224 main 1741 1741 __________P___ -1 -9.13491 84.7224 7 3 242
1860336S09086 1861 36 SI MM NOT_NAMED 1860-12-02 03:00:00 NR -9.21368 84.5715 main 1749 1746 __________P___ -1 -9.21368 84.5715 7 4 243
1860336S09086 1861 36 SI MM NOT_NAMED 1860-12-02 06:00:00 NR -9.30000 84.4000 main 1754 1751 __________O___ -1 -9.30000 84.4000 7 4 244
1860336S09086 1861 36 SI MM NOT_NAMED 1860-12-02 09:00:00 NR -9.39692 84.1885 main 1760 1757 __________P___ -1 -9.39692 84.1885 7 5 245
1860336S09086 1861 36 SI MM NOT_NAMED 1860-12-02 12:00:00 NR -9.50007 83.9576 main 1766 1763 __________P___ -1 -9.50007 83.9576 7 5 246
1860336S09086 1861 36 SI MM NOT_NAMED 1860-12-02 15:00:00 NR -9.60317 83.7229 main 1770 1768 __________P___ -1 -9.60317 83.7229 7 5 246
1860336S09086 1861 36 SI MM NOT_NAMED 1860-12-02 18:00:00 NR -9.70000 83.5000 main 1777 1775 __________O___ -1 -9.70000 83.5000 7 4 246
1860336S09086 1861 36 SI MM NOT_NAMED 1860-12-02 21:00:00 NR -9.76158 83.3550 main 1786 1782 __________P___ -1 -9.76158 83.3550 7 3 247
1860336S09086 1861 36 SI MM NOT_NAMED 1860-12-03 00:00:00 NR -9.81952 83.2170 main 1782 1780 __________P___ -1 -9.81952 83.2170 7 3 247
1860336S09086 1861 36 SI MM NOT_NAMED 1860-12-03 03:00:00 NR -9.89273 83.0455 main 1790 1788 __________P___ -1 -9.89273 83.0455 7 4 246
1860336S09086 1861 36 SI MM NOT_NAMED 1860-12-03 06:00:00 NR -10.0000 82.8000 main 1798 1796 __________O___ -1 -10.0000 82.8000 7 7 246
1860336S09086 1861 36 SI MM NOT_NAMED 1860-12-03 09:00:00 NR -10.1643 82.4252 main 1815 1812 __________P___ -1 -10.1643 82.4252 7 9 246
1860336S09086 1861 36 SI MM NOT_NAMED 1860-12-03 12:00:00 NR -10.3629 81.9752 main 1832 1831 __________P___ -1 -10.3629 81.9752 7 10 246
1860336S09086 1861 36 SI MM NOT_NAMED 1860-12-03 15:00:00 NR -10.5799 81.4876 main 1851 1850 __________P___ -1 -10.5799 81.4876 7 11 245
1860336S09086 1861 36 SI MM NOT_NAMED 1860-12-03 18:00:00 NR -10.8000 81.0000 main 1871 1871 __________O___ -1 -10.8000 81.0000 7 10 245
1860336S09086 1861 36 SI MM NOT_NAMED 1860-12-03 21:00:00 NR -10.9915 80.5796 main 1893 1893 __________P___ -1 -10.9915 80.5796 7 9 245
1860336S09086 1861 36 SI MM NOT_NAMED 1860-12-04 00:00:00 NR -11.1845 80.1645 main 1916 1916 __________P___ -1 -11.1845 80.1645 7 9 244
1860336S09086 1861 36 SI MM NOT_NAMED 1860-12-04 03:00:00 NR -11.3852 79.7421 main 1940 1940 __________P___ -1 -11.3852 79.7421 7 9 244
1860336S09086 1861 36 SI MM NOT_NAMED 1860-12-04 06:00:00 NR -11.6000 79.3000 main 1966 1966 __________O___ -1 -11.6000 79.3000 7 10 244
1860336S09086 1861 36 SI MM NOT_NAMED 1860-12-04 09:00:00 NR -11.8316 78.8093 main 1993 1993 __________P___ -1 -11.8316 78.8093 7 11 244
1860336S09086 1861 36 SI MM NOT_NAMED 1860-12-04 12:00:00 NR -12.0776 78.2999 main 2032 2032 __________P___ -1 -12.0776 78.2999 7 11 243
1860336S09086 1861 36 SI MM NOT_NAMED 1860-12-04 15:00:00 NR -12.3348 77.7905 main 2062 2062 __________P___ -1 -12.3348 77.7905 7 11 242
1860336S09086 1861 36 SI MM NOT_NAMED 1860-12-04 18:00:00 NR -12.6000 77.3000 main 2104 2104 __________O___ -1 -12.6000 77.3000 7 11 240
1860336S09086 1861 36 SI MM NOT_NAMED 1860-12-04 21:00:00 NR -12.8707 76.8425 main 2147 2136 __________P___ -1 -12.8707 76.8425 7 10 238
1860336S09086 1861 36 SI MM NOT_NAMED 1860-12-05 00:00:00 NR -13.1452 76.4131 main 2136 2083 __________P___ -1 -13.1452 76.4131 7 10 236
1860336S09086 1861 36 SI MM NOT_NAMED 1860-12-05 03:00:00 NR -13.4221 76.0022 main 2083 2030 __________P___ -1 -13.4221 76.0022 7 10 235
1860336S09086 1861 36 SI MM NOT_NAMED 1860-12-05 06:00:00 NR -13.7000 75.6000 main 2030 __________O___ -1 -13.7000 75.6000 7 10 235

About IBTrACS Database

This database is a web-friendly format of International Best Track Archive for Climate Stewardship (IBTrACS), a global best track data archive curated by NOAA dating back to 1842.

Updated: 2021-12-03